Relevés horaires Saint-Mandrier-sur-Mer - Cap Cépet (France)


Relevés horaires à Saint-Mandrier-sur-Mer - Cap Cépet - Dimanche 02 Févr. 2020
Heure UTC1 Température [°C] Vent [km/h] Hum. [%] Pres.4 [hPa] Visi. [Km] Nébu. [octa] Préc.5 [mm] Cond.
2m. Res. Ros. Dir.2 Vit. Moy. Raf.3
23:00 16.4 15.5 11.3 NO 18.5 -- 29.6 72 1022.3(-0.1/3h) -- -- -- --
22:00 16.7 15.7 11.4 NO 22.2 -- 29.6 71 1022.4(0.3/3h) -- -- -- --
21:00 16.8 15.8 11.5 NO 22.2 -- 37.0 71 1022.6(0.5/3h) -- -- -- --
20:00 16.4 15.2 11.5 NO 24.1 -- 31.5 73 1022.4(0.8/3h) -- -- -- --
19:00 15.3 13.9 10.9 NO 22.2 -- 31.5 75 1022.2(0.9/3h) -- -- -- --
18:00 14.9 13.4 10.7 NO 22.2 -- 38.9 76 1022.2(0.6/3h) 20 2/8 -- --
17:00 15.7 14.1 10.5 NO 27.8 -- 38.9 71 1021.6(-0.2/3h) -- -- -- --
16:00 16.3 15 10.8 NO 25.9 -- 38.9 70 1021.2(-0.6/3h) -- -- -- --
15:00 17.0 15.9 11.3 NO 25.9 -- 37.0 69 1021.4(-1.0/3h) 30 6/8 -- --
14:00 16.3 14.9 11.2 NO 27.8 -- 42.6 72 1021.8(-1.3/3h) -- -- -- --
13:00 17.5 16.5 11.5 NO 27.8 -- 38.9 68 1021.7(-1.6/3h) -- -- -- --
12:00 16.0 14.7 11.4 NO 24.1 -- 37.0 74 1022.5(-0.6/3h) -- -- -- --
11:00 16.2 15 10.9 NO 24.1 -- 33.3 71 1023.1(0.1/3h) -- -- -- --
10:00 15.1 13.7 9.5 NO 22.2 -- 33.3 69 1023.5(1.0/3h) -- -- -- --
09:00 13.2 11.4 10.2 NO 20.4 -- 29.6 82 1023.3(1.4/3h) 25 4/8 -- --
08:00 12.4 11.1 9.2 NO 13.0 -- 22.2 81 1023.4(2.4/3h) -- -- -- --
07:00 12.7 11.1 7.4 NO 16.7 -- 25.9 70 1022.6(1.9/3h) -- -- -- --
06:00 12.5 10.8 8.6 NO 16.7 -- 29.6 77 1021.9(1.6/3h) -- -- -- --
05:00 12.4 10.2 9.4 NO 22.2 -- 29.6 82 1021(0.2/3h) -- -- -- --
04:00 12.7 10.5 8.2 NO 24.1 -- 33.3 74 1020.7(0.3/3h) -- -- -- --
03:00 12.6 10.5 7.7 NO 22.2 -- 33.3 72 1020.3(-0.2/3h) -- -- -- --
02:00 12.8 10.5 8.5 NO 25.9 -- 35.2 75 1020.8(0.0/3h) -- -- -- --
01:00 13.4 11.3 8.2 NO 25.9 -- 33.3 71 1020.3(-0.3/3h) -- -- -- --
00:00 13.1 11.3 8.6 NO 20.4 -- 31.5 74 1020.5(-0.3/3h) -- -- -- --

1 Coordinated Universal Time. Actuellement il est 03:00 locale et 01:00 UTC.

2 Le vent souffle depuis la direction indiquée vers la direction oposée.

3 Les rafales max. sont disponible 40 min après l'heure du relevé.

4 Pour les stations d'altitude (plus de 600m) le géopotentiel du niveau le plus proche de la pression obligatoire est indiqué.

5 Les stations disposant d'un diffuseur peuvent indiquer "trace". Cela signifie que des précipitations ont touchés le sol mais que la quantité est inférieure à 0.1 mm.

Récapitulatif de la journée
Température [°C] Vent [km/h] Ensoleillement4 [h] Precipitations totale5 [mm] Pression [Hpa]
Min1 Max.2 Moy.3 Max. Min Max.
12.3 17.5 0 42.6 0 h 0 min 0 1020.3 1023.5

1 Température minimale relevée entre 18:00 UTC la veille et 18:00 UTC le jour donné.

2 Température maximale relevée entre 06:00 UTC le jour donné et 06:00 UTC le lendemain.

3 Vent moyen de la journée basé sur les relevés horaires.

4 Ensoleillement en heures relevé entre 06:00 UTC la veille et 06:00 UTC le jour donné.

5 Précipitations totales tombées entre 06:00 UTC la jour donné et 06:00 UTC le lendemain.

Graphiques horaires